sensor_id;sensor_type;location;lat;lon;timestamp;P1;durP1;ratioP1;P2;durP2;ratioP2
42514;SDS011;28144;49.920;18.730;2022-11-25T00:01:15;164.27;;;67.63;;
42514;SDS011;28144;49.920;18.730;2022-11-25T00:03:42;159.43;;;68.80;;
42514;SDS011;28144;49.920;18.730;2022-11-25T00:08:47;148.95;;;67.43;;
42514;SDS011;28144;49.920;18.730;2022-11-25T00:11:15;149.43;;;64.27;;
42514;SDS011;28144;49.920;18.730;2022-11-25T00:13:42;156.13;;;66.63;;
42514;SDS011;28144;49.920;18.730;2022-11-25T00:16:18;143.52;;;63.33;;
42514;SDS011;28144;49.920;18.730;2022-11-25T00:18:51;146.73;;;64.53;;
42514;SDS011;28144;49.920;18.730;2022-11-25T00:21:19;142.03;;;61.43;;
42514;SDS011;28144;49.920;18.730;2022-11-25T00:23:50;142.20;;;57.23;;
42514;SDS011;28144;49.920;18.730;2022-11-25T00:26:17;138.00;;;58.17;;
42514;SDS011;28144;49.920;18.730;2022-11-25T00:28:44;150.60;;;61.13;;
42514;SDS011;28144;49.920;18.730;2022-11-25T00:33:37;158.77;;;59.77;;
42514;SDS011;28144;49.920;18.730;2022-11-25T00:36:04;153.67;;;62.03;;
42514;SDS011;28144;49.920;18.730;2022-11-25T00:38:30;153.77;;;62.13;;
42514;SDS011;28144;49.920;18.730;2022-11-25T00:40:56;153.50;;;60.03;;
42514;SDS011;28144;49.920;18.730;2022-11-25T00:43:40;146.70;;;56.50;;
42514;SDS011;28144;49.920;18.730;2022-11-25T00:46:24;138.40;;;57.70;;
42514;SDS011;28144;49.920;18.730;2022-11-25T00:48:50;138.33;;;57.77;;
42514;SDS011;28144;49.920;18.730;2022-11-25T00:51:16;144.37;;;58.93;;
42514;SDS011;28144;49.920;18.730;2022-11-25T00:53:42;148.13;;;60.33;;
42514;SDS011;28144;49.920;18.730;2022-11-25T00:56:08;146.50;;;59.97;;
42514;SDS011;28144;49.920;18.730;2022-11-25T00:58:40;140.03;;;58.03;;
42514;SDS011;28144;49.920;18.730;2022-11-25T01:01:06;137.38;;;57.92;;
42514;SDS011;28144;49.920;18.730;2022-11-25T01:03:33;143.65;;;60.00;;
42514;SDS011;28144;49.920;18.730;2022-11-25T01:06:05;152.43;;;58.63;;
42514;SDS011;28144;49.920;18.730;2022-11-25T01:08:32;146.27;;;58.67;;
42514;SDS011;28144;49.920;18.730;2022-11-25T01:10:59;140.82;;;60.28;;
42514;SDS011;28144;49.920;18.730;2022-11-25T01:13:26;147.83;;;58.07;;
42514;SDS011;28144;49.920;18.730;2022-11-25T01:15:52;142.50;;;56.07;;
42514;SDS011;28144;49.920;18.730;2022-11-25T01:18:18;147.67;;;57.77;;
42514;SDS011;28144;49.920;18.730;2022-11-25T01:20:43;142.30;;;57.50;;
42514;SDS011;28144;49.920;18.730;2022-11-25T01:23:09;139.27;;;58.20;;
42514;SDS011;28144;49.920;18.730;2022-11-25T01:25:35;129.13;;;55.53;;
42514;SDS011;28144;49.920;18.730;2022-11-25T01:28:02;134.85;;;55.95;;
42514;SDS011;28144;49.920;18.730;2022-11-25T01:30:28;140.88;;;55.78;;
42514;SDS011;28144;49.920;18.730;2022-11-25T01:32:54;145.10;;;58.00;;
42514;SDS011;28144;49.920;18.730;2022-11-25T01:35:19;133.13;;;56.17;;
42514;SDS011;28144;49.920;18.730;2022-11-25T01:37:45;119.63;;;53.73;;
42514;SDS011;28144;49.920;18.730;2022-11-25T01:40:10;140.30;;;56.80;;
42514;SDS011;28144;49.920;18.730;2022-11-25T01:42:44;145.23;;;58.47;;
42514;SDS011;28144;49.920;18.730;2022-11-25T01:47:53;153.50;;;63.43;;
42514;SDS011;28144;49.920;18.730;2022-11-25T01:50:21;141.67;;;56.17;;
42514;SDS011;28144;49.920;18.730;2022-11-25T01:52:49;142.07;;;54.87;;
42514;SDS011;28144;49.920;18.730;2022-11-25T01:57:44;143.30;;;54.60;;
42514;SDS011;28144;49.920;18.730;2022-11-25T02:00:13;133.03;;;54.77;;
42514;SDS011;28144;49.920;18.730;2022-11-25T02:05:06;142.10;;;53.37;;
42514;SDS011;28144;49.920;18.730;2022-11-25T02:07:37;130.53;;;54.30;;
42514;SDS011;28144;49.920;18.730;2022-11-25T02:10:09;127.83;;;53.60;;
42514;SDS011;28144;49.920;18.730;2022-11-25T02:12:39;127.67;;;53.00;;
42514;SDS011;28144;49.920;18.730;2022-11-25T02:15:06;136.13;;;53.23;;
42514;SDS011;28144;49.920;18.730;2022-11-25T02:17:32;123.50;;;53.50;;
42514;SDS011;28144;49.920;18.730;2022-11-25T02:20:00;142.10;;;57.35;;
42514;SDS011;28144;49.920;18.730;2022-11-25T02:25:35;132.30;;;55.37;;
42514;SDS011;28144;49.920;18.730;2022-11-25T02:28:04;131.60;;;53.17;;
42514;SDS011;28144;49.920;18.730;2022-11-25T02:30:43;133.43;;;56.07;;
42514;SDS011;28144;49.920;18.730;2022-11-25T02:33:09;129.07;;;53.35;;
42514;SDS011;28144;49.920;18.730;2022-11-25T02:35:37;134.18;;;55.20;;
42514;SDS011;28144;49.920;18.730;2022-11-25T02:40:36;134.13;;;53.90;;
42514;SDS011;28144;49.920;18.730;2022-11-25T02:43:17;129.33;;;53.67;;
42514;SDS011;28144;49.920;18.730;2022-11-25T02:46:00;131.48;;;51.38;;
42514;SDS011;28144;49.920;18.730;2022-11-25T02:48:26;123.40;;;50.43;;
42514;SDS011;28144;49.920;18.730;2022-11-25T02:50:53;112.63;;;49.80;;
42514;SDS011;28144;49.920;18.730;2022-11-25T02:53:19;121.03;;;50.23;;
42514;SDS011;28144;49.920;18.730;2022-11-25T02:55:45;110.40;;;48.88;;
42514;SDS011;28144;49.920;18.730;2022-11-25T02:58:11;122.20;;;48.97;;
42514;SDS011;28144;49.920;18.730;2022-11-25T03:00:37;114.40;;;46.72;;
42514;SDS011;28144;49.920;18.730;2022-11-25T03:03:04;114.70;;;51.05;;
42514;SDS011;28144;49.920;18.730;2022-11-25T03:05:30;122.82;;;49.92;;
42514;SDS011;28144;49.920;18.730;2022-11-25T03:07:56;128.43;;;54.72;;
42514;SDS011;28144;49.920;18.730;2022-11-25T03:10:22;123.55;;;51.33;;
42514;SDS011;28144;49.920;18.730;2022-11-25T03:12:48;124.17;;;50.87;;
42514;SDS011;28144;49.920;18.730;2022-11-25T03:15:14;117.00;;;49.80;;
42514;SDS011;28144;49.920;18.730;2022-11-25T03:17:39;114.00;;;48.07;;
42514;SDS011;28144;49.920;18.730;2022-11-25T03:20:07;118.05;;;49.75;;
42514;SDS011;28144;49.920;18.730;2022-11-25T03:22:32;116.43;;;49.70;;
42514;SDS011;28144;49.920;18.730;2022-11-25T03:24:58;110.10;;;48.35;;
42514;SDS011;28144;49.920;18.730;2022-11-25T03:27:24;115.27;;;49.03;;
42514;SDS011;28144;49.920;18.730;2022-11-25T03:29:50;116.13;;;48.40;;
42514;SDS011;28144;49.920;18.730;2022-11-25T03:32:15;116.37;;;48.77;;
42514;SDS011;28144;49.920;18.730;2022-11-25T03:34:41;121.43;;;50.97;;
42514;SDS011;28144;49.920;18.730;2022-11-25T03:37:07;128.43;;;51.87;;
42514;SDS011;28144;49.920;18.730;2022-11-25T03:39:33;115.15;;;48.80;;
42514;SDS011;28144;49.920;18.730;2022-11-25T03:41:59;117.37;;;49.53;;
42514;SDS011;28144;49.920;18.730;2022-11-25T03:44:25;117.63;;;49.33;;
42514;SDS011;28144;49.920;18.730;2022-11-25T03:46:50;134.93;;;57.20;;
42514;SDS011;28144;49.920;18.730;2022-11-25T03:49:16;127.17;;;49.73;;
42514;SDS011;28144;49.920;18.730;2022-11-25T03:51:42;121.17;;;48.77;;
42514;SDS011;28144;49.920;18.730;2022-11-25T03:54:08;119.80;;;49.43;;
42514;SDS011;28144;49.920;18.730;2022-11-25T03:56:34;135.70;;;62.97;;
42514;SDS011;28144;49.920;18.730;2022-11-25T03:58:59;113.40;;;49.13;;
42514;SDS011;28144;49.920;18.730;2022-11-25T04:01:25;111.47;;;48.53;;
42514;SDS011;28144;49.920;18.730;2022-11-25T04:03:51;116.50;;;48.67;;
42514;SDS011;28144;49.920;18.730;2022-11-25T04:06:16;107.97;;;47.27;;
42514;SDS011;28144;49.920;18.730;2022-11-25T04:08:44;107.53;;;45.90;;
42514;SDS011;28144;49.920;18.730;2022-11-25T04:11:10;113.45;;;47.53;;
42514;SDS011;28144;49.920;18.730;2022-11-25T04:13:36;109.80;;;48.10;;
42514;SDS011;28144;49.920;18.730;2022-11-25T04:16:02;108.70;;;46.40;;
42514;SDS011;28144;49.920;18.730;2022-11-25T04:18:28;116.80;;;49.97;;
42514;SDS011;28144;49.920;18.730;2022-11-25T04:20:53;118.13;;;49.33;;
42514;SDS011;28144;49.920;18.730;2022-11-25T04:23:19;111.40;;;49.50;;
42514;SDS011;28144;49.920;18.730;2022-11-25T04:25:47;117.47;;;49.00;;
42514;SDS011;28144;49.920;18.730;2022-11-25T04:28:14;115.80;;;47.70;;
42514;SDS011;28144;49.920;18.730;2022-11-25T04:30:39;108.43;;;46.23;;
42514;SDS011;28144;49.920;18.730;2022-11-25T04:33:05;112.57;;;49.63;;
42514;SDS011;28144;49.920;18.730;2022-11-25T04:35:31;124.97;;;49.03;;
42514;SDS011;28144;49.920;18.730;2022-11-25T04:37:56;121.03;;;49.37;;
42514;SDS011;28144;49.920;18.730;2022-11-25T04:40:22;112.70;;;50.10;;
42514;SDS011;28144;49.920;18.730;2022-11-25T04:42:48;121.97;;;52.67;;
42514;SDS011;28144;49.920;18.730;2022-11-25T04:45:15;106.70;;;47.97;;
42514;SDS011;28144;49.920;18.730;2022-11-25T04:47:42;106.30;;;47.23;;
42514;SDS011;28144;49.920;18.730;2022-11-25T04:50:14;108.10;;;47.50;;
42514;SDS011;28144;49.920;18.730;2022-11-25T04:52:42;112.23;;;48.67;;
42514;SDS011;28144;49.920;18.730;2022-11-25T04:55:07;113.53;;;47.53;;
42514;SDS011;28144;49.920;18.730;2022-11-25T04:57:34;115.13;;;48.28;;
42514;SDS011;28144;49.920;18.730;2022-11-25T04:59:59;97.50;;;45.53;;
42514;SDS011;28144;49.920;18.730;2022-11-25T05:02:26;112.80;;;47.27;;
42514;SDS011;28144;49.920;18.730;2022-11-25T05:04:54;104.65;;;45.20;;
42514;SDS011;28144;49.920;18.730;2022-11-25T05:07:22;106.93;;;47.73;;
42514;SDS011;28144;49.920;18.730;2022-11-25T05:09:48;114.87;;;48.53;;
42514;SDS011;28144;49.920;18.730;2022-11-25T05:12:19;111.50;;;48.67;;
42514;SDS011;28144;49.920;18.730;2022-11-25T05:14:46;118.50;;;49.07;;
42514;SDS011;28144;49.920;18.730;2022-11-25T05:17:14;111.22;;;47.72;;
42514;SDS011;28144;49.920;18.730;2022-11-25T05:19:41;98.67;;;44.97;;
42514;SDS011;28144;49.920;18.730;2022-11-25T05:22:11;108.87;;;45.27;;
42514;SDS011;28144;49.920;18.730;2022-11-25T05:24:37;108.00;;;49.03;;
42514;SDS011;28144;49.920;18.730;2022-11-25T05:27:03;100.57;;;43.83;;
42514;SDS011;28144;49.920;18.730;2022-11-25T05:29:28;100.23;;;44.90;;
42514;SDS011;28144;49.920;18.730;2022-11-25T05:31:54;98.43;;;45.67;;
42514;SDS011;28144;49.920;18.730;2022-11-25T05:34:20;104.23;;;45.97;;
42514;SDS011;28144;49.920;18.730;2022-11-25T05:36:46;119.80;;;47.63;;
42514;SDS011;28144;49.920;18.730;2022-11-25T05:39:11;111.50;;;46.93;;
42514;SDS011;28144;49.920;18.730;2022-11-25T05:41:37;97.07;;;44.37;;
42514;SDS011;28144;49.920;18.730;2022-11-25T05:44:03;100.23;;;46.07;;
42514;SDS011;28144;49.920;18.730;2022-11-25T05:46:30;105.50;;;45.22;;
42514;SDS011;28144;49.920;18.730;2022-11-25T05:48:56;104.05;;;46.47;;
42514;SDS011;28144;49.920;18.730;2022-11-25T05:51:22;94.80;;;44.15;;
42514;SDS011;28144;49.920;18.730;2022-11-25T05:53:49;97.63;;;44.63;;
42514;SDS011;28144;49.920;18.730;2022-11-25T05:56:15;107.18;;;46.22;;
42514;SDS011;28144;49.920;18.730;2022-11-25T05:58:41;98.17;;;44.07;;
42514;SDS011;28144;49.920;18.730;2022-11-25T06:01:08;101.30;;;45.17;;
42514;SDS011;28144;49.920;18.730;2022-11-25T06:03:35;104.23;;;46.67;;
42514;SDS011;28144;49.920;18.730;2022-11-25T06:06:01;94.65;;;45.17;;
42514;SDS011;28144;49.920;18.730;2022-11-25T06:08:27;95.68;;;42.38;;
42514;SDS011;28144;49.920;18.730;2022-11-25T06:10:53;92.90;;;44.37;;
42514;SDS011;28144;49.920;18.730;2022-11-25T06:13:19;101.97;;;45.73;;
42514;SDS011;28144;49.920;18.730;2022-11-25T06:15:45;97.43;;;44.17;;
42514;SDS011;28144;49.920;18.730;2022-11-25T06:18:11;96.15;;;43.30;;
42514;SDS011;28144;49.920;18.730;2022-11-25T06:20:38;95.30;;;42.33;;
42514;SDS011;28144;49.920;18.730;2022-11-25T06:23:04;90.40;;;41.87;;
42514;SDS011;28144;49.920;18.730;2022-11-25T06:25:30;84.07;;;40.40;;
42514;SDS011;28144;49.920;18.730;2022-11-25T06:27:56;93.10;;;45.20;;
42514;SDS011;28144;49.920;18.730;2022-11-25T06:30:22;93.88;;;42.83;;
42514;SDS011;28144;49.920;18.730;2022-11-25T06:32:48;97.00;;;42.80;;
42514;SDS011;28144;49.920;18.730;2022-11-25T06:35:14;94.07;;;41.33;;
42514;SDS011;28144;49.920;18.730;2022-11-25T06:37:39;89.63;;;42.57;;
42514;SDS011;28144;49.920;18.730;2022-11-25T06:40:05;93.17;;;42.27;;
42514;SDS011;28144;49.920;18.730;2022-11-25T06:42:31;90.17;;;40.73;;
42514;SDS011;28144;49.920;18.730;2022-11-25T06:44:57;101.80;;;43.37;;
42514;SDS011;28144;49.920;18.730;2022-11-25T06:47:23;106.90;;;46.90;;
42514;SDS011;28144;49.920;18.730;2022-11-25T06:49:49;98.27;;;45.20;;
42514;SDS011;28144;49.920;18.730;2022-11-25T06:52:14;92.80;;;40.73;;
42514;SDS011;28144;49.920;18.730;2022-11-25T06:54:40;91.27;;;39.63;;
42514;SDS011;28144;49.920;18.730;2022-11-25T06:57:07;82.65;;;38.83;;
42514;SDS011;28144;49.920;18.730;2022-11-25T06:59:33;97.95;;;39.10;;
42514;SDS011;28144;49.920;18.730;2022-11-25T07:01:59;81.73;;;36.80;;
42514;SDS011;28144;49.920;18.730;2022-11-25T07:04:25;77.00;;;37.77;;
42514;SDS011;28144;49.920;18.730;2022-11-25T07:06:51;75.43;;;37.03;;
42514;SDS011;28144;49.920;18.730;2022-11-25T07:09:17;80.78;;;39.05;;
42514;SDS011;28144;49.920;18.730;2022-11-25T07:11:46;80.90;;;36.40;;
42514;SDS011;28144;49.920;18.730;2022-11-25T07:14:14;72.68;;;35.03;;
42514;SDS011;28144;49.920;18.730;2022-11-25T07:16:41;73.95;;;35.60;;
42514;SDS011;28144;49.920;18.730;2022-11-25T07:19:09;79.30;;;37.00;;
42514;SDS011;28144;49.920;18.730;2022-11-25T07:21:36;72.53;;;37.90;;
42514;SDS011;28144;49.920;18.730;2022-11-25T07:24:03;69.20;;;35.90;;
42514;SDS011;28144;49.920;18.730;2022-11-25T07:26:31;69.27;;;35.00;;
42514;SDS011;28144;49.920;18.730;2022-11-25T07:28:59;75.27;;;35.67;;
42514;SDS011;28144;49.920;18.730;2022-11-25T07:31:28;71.93;;;36.20;;
42514;SDS011;28144;49.920;18.730;2022-11-25T07:33:56;72.50;;;35.17;;
42514;SDS011;28144;49.920;18.730;2022-11-25T07:36:23;70.33;;;35.37;;
42514;SDS011;28144;49.920;18.730;2022-11-25T07:38:50;67.30;;;34.45;;
42514;SDS011;28144;49.920;18.730;2022-11-25T07:41:20;71.70;;;34.17;;
42514;SDS011;28144;49.920;18.730;2022-11-25T07:43:49;71.37;;;33.53;;
42514;SDS011;28144;49.920;18.730;2022-11-25T07:46:17;71.07;;;35.83;;
42514;SDS011;28144;49.920;18.730;2022-11-25T07:48:43;64.73;;;32.70;;
42514;SDS011;28144;49.920;18.730;2022-11-25T07:51:28;72.05;;;34.53;;
42514;SDS011;28144;49.920;18.730;2022-11-25T07:53:56;67.93;;;31.87;;
42514;SDS011;28144;49.920;18.730;2022-11-25T07:56:23;64.78;;;32.25;;
42514;SDS011;28144;49.920;18.730;2022-11-25T07:58:49;69.22;;;32.30;;
42514;SDS011;28144;49.920;18.730;2022-11-25T08:01:15;65.37;;;34.07;;
42514;SDS011;28144;49.920;18.730;2022-11-25T08:03:43;69.80;;;36.63;;
42514;SDS011;28144;49.920;18.730;2022-11-25T08:06:10;73.75;;;35.85;;
42514;SDS011;28144;49.920;18.730;2022-11-25T08:08:43;67.63;;;33.43;;
42514;SDS011;28144;49.920;18.730;2022-11-25T08:11:11;65.20;;;33.72;;
42514;SDS011;28144;49.920;18.730;2022-11-25T08:13:42;66.30;;;33.73;;
42514;SDS011;28144;49.920;18.730;2022-11-25T08:16:09;78.95;;;37.53;;
42514;SDS011;28144;49.920;18.730;2022-11-25T08:18:36;72.97;;;35.50;;
42514;SDS011;28144;49.920;18.730;2022-11-25T08:21:02;78.20;;;34.93;;
42514;SDS011;28144;49.920;18.730;2022-11-25T08:23:29;76.67;;;35.60;;
42514;SDS011;28144;49.920;18.730;2022-11-25T08:25:55;63.40;;;35.10;;
42514;SDS011;28144;49.920;18.730;2022-11-25T08:28:22;61.85;;;32.28;;
42514;SDS011;28144;49.920;18.730;2022-11-25T08:30:48;66.03;;;33.03;;
42514;SDS011;28144;49.920;18.730;2022-11-25T08:33:14;66.32;;;33.53;;
42514;SDS011;28144;49.920;18.730;2022-11-25T08:35:40;69.23;;;35.00;;
42514;SDS011;28144;49.920;18.730;2022-11-25T08:38:06;63.20;;;31.67;;
42514;SDS011;28144;49.920;18.730;2022-11-25T08:40:33;65.13;;;32.07;;
42514;SDS011;28144;49.920;18.730;2022-11-25T08:43:00;61.00;;;31.03;;
42514;SDS011;28144;49.920;18.730;2022-11-25T08:45:26;57.15;;;31.52;;
42514;SDS011;28144;49.920;18.730;2022-11-25T08:47:52;62.33;;;32.88;;
42514;SDS011;28144;49.920;18.730;2022-11-25T08:50:18;64.67;;;34.23;;
42514;SDS011;28144;49.920;18.730;2022-11-25T08:52:44;64.97;;;30.27;;
42514;SDS011;28144;49.920;18.730;2022-11-25T08:55:09;62.57;;;32.23;;
42514;SDS011;28144;49.920;18.730;2022-11-25T08:57:35;77.03;;;33.73;;
42514;SDS011;28144;49.920;18.730;2022-11-25T09:00:02;65.23;;;33.20;;
42514;SDS011;28144;49.920;18.730;2022-11-25T09:02:29;78.50;;;36.10;;
42514;SDS011;28144;49.920;18.730;2022-11-25T09:04:54;61.13;;;31.63;;
42514;SDS011;28144;49.920;18.730;2022-11-25T09:07:20;57.77;;;30.27;;
42514;SDS011;28144;49.920;18.730;2022-11-25T09:09:46;57.23;;;30.20;;
42514;SDS011;28144;49.920;18.730;2022-11-25T09:12:12;58.90;;;30.93;;
42514;SDS011;28144;49.920;18.730;2022-11-25T09:14:37;63.77;;;31.90;;
42514;SDS011;28144;49.920;18.730;2022-11-25T09:17:08;61.03;;;30.17;;
42514;SDS011;28144;49.920;18.730;2022-11-25T09:19:35;66.07;;;31.97;;
42514;SDS011;28144;49.920;18.730;2022-11-25T09:22:01;59.15;;;31.60;;
42514;SDS011;28144;49.920;18.730;2022-11-25T09:24:27;58.47;;;29.80;;
42514;SDS011;28144;49.920;18.730;2022-11-25T09:26:53;61.27;;;30.53;;
42514;SDS011;28144;49.920;18.730;2022-11-25T09:29:19;63.10;;;30.30;;
42514;SDS011;28144;49.920;18.730;2022-11-25T09:31:45;55.67;;;30.65;;
42514;SDS011;28144;49.920;18.730;2022-11-25T09:34:10;59.40;;;30.37;;
42514;SDS011;28144;49.920;18.730;2022-11-25T09:36:36;152.17;;;47.40;;
42514;SDS011;28144;49.920;18.730;2022-11-25T09:39:02;70.10;;;31.47;;
42514;SDS011;28144;49.920;18.730;2022-11-25T09:49:52;82.63;;;31.53;;
42514;SDS011;28144;49.920;18.730;2022-11-25T09:52:35;59.37;;;29.93;;
42514;SDS011;28144;49.920;18.730;2022-11-25T09:55:22;56.67;;;26.90;;
42514;SDS011;28144;49.920;18.730;2022-11-25T10:00:43;54.70;;;25.50;;
42514;SDS011;28144;49.920;18.730;2022-11-25T10:03:16;48.00;;;25.00;;
42514;SDS011;28144;49.920;18.730;2022-11-25T10:06:09;51.77;;;25.60;;
42514;SDS011;28144;49.920;18.730;2022-11-25T10:08:44;43.13;;;23.10;;
42514;SDS011;28144;49.920;18.730;2022-11-25T10:16:56;45.20;;;22.27;;
42514;SDS011;28144;49.920;18.730;2022-11-25T10:19:38;43.10;;;22.10;;
42514;SDS011;28144;49.920;18.730;2022-11-25T10:22:25;42.17;;;22.60;;
42514;SDS011;28144;49.920;18.730;2022-11-25T10:24:56;39.20;;;20.93;;
42514;SDS011;28144;49.920;18.730;2022-11-25T10:27:27;42.27;;;22.43;;
42514;SDS011;28144;49.920;18.730;2022-11-25T10:30:19;42.27;;;21.13;;
42514;SDS011;28144;49.920;18.730;2022-11-25T10:35:29;41.60;;;22.23;;
42514;SDS011;28144;49.920;18.730;2022-11-25T10:41:33;39.47;;;21.00;;
42514;SDS011;28144;49.920;18.730;2022-11-25T10:44:11;54.87;;;25.57;;
42514;SDS011;28144;49.920;18.730;2022-11-25T10:49:47;42.27;;;23.20;;
42514;SDS011;28144;49.920;18.730;2022-11-25T10:52:27;52.27;;;24.73;;
42514;SDS011;28144;49.920;18.730;2022-11-25T10:54:55;48.43;;;23.17;;
42514;SDS011;28144;49.920;18.730;2022-11-25T10:57:42;84.73;;;33.63;;
42514;SDS011;28144;49.920;18.730;2022-11-25T11:00:22;139.27;;;49.67;;
42514;SDS011;28144;49.920;18.730;2022-11-25T11:02:51;40.40;;;21.43;;
42514;SDS011;28144;49.920;18.730;2022-11-25T11:05:20;58.35;;;24.48;;
42514;SDS011;28144;49.920;18.730;2022-11-25T11:07:48;54.77;;;26.43;;
42514;SDS011;28144;49.920;18.730;2022-11-25T11:10:32;96.50;;;44.17;;
42514;SDS011;28144;49.920;18.730;2022-11-25T11:12:59;39.87;;;20.57;;
42514;SDS011;28144;49.920;18.730;2022-11-25T11:15:31;32.37;;;19.43;;
42514;SDS011;28144;49.920;18.730;2022-11-25T11:18:00;32.70;;;18.67;;
42514;SDS011;28144;49.920;18.730;2022-11-25T11:20:44;31.90;;;18.83;;
42514;SDS011;28144;49.920;18.730;2022-11-25T11:23:12;33.57;;;18.13;;
42514;SDS011;28144;49.920;18.730;2022-11-25T11:25:39;35.50;;;19.08;;
42514;SDS011;28144;49.920;18.730;2022-11-25T11:31:35;36.33;;;19.75;;
42514;SDS011;28144;49.920;18.730;2022-11-25T11:34:29;46.40;;;22.27;;
42514;SDS011;28144;49.920;18.730;2022-11-25T11:45:21;36.37;;;19.27;;
42514;SDS011;28144;49.920;18.730;2022-11-25T11:51:15;33.70;;;19.67;;
42514;SDS011;28144;49.920;18.730;2022-11-25T11:53:50;31.67;;;19.00;;
42514;SDS011;28144;49.920;18.730;2022-11-25T11:56:28;54.57;;;24.50;;
42514;SDS011;28144;49.920;18.730;2022-11-25T12:01:40;40.50;;;21.20;;
42514;SDS011;28144;49.920;18.730;2022-11-25T12:04:26;33.47;;;18.20;;
42514;SDS011;28144;49.920;18.730;2022-11-25T12:09:24;32.87;;;18.77;;
42514;SDS011;28144;49.920;18.730;2022-11-25T12:11:53;31.93;;;19.40;;
42514;SDS011;28144;49.920;18.730;2022-11-25T12:17:33;34.37;;;18.23;;
42514;SDS011;28144;49.920;18.730;2022-11-25T12:25:55;70.60;;;34.70;;
42514;SDS011;28144;49.920;18.730;2022-11-25T12:28:31;37.40;;;21.67;;
42514;SDS011;28144;49.920;18.730;2022-11-25T12:31:03;34.77;;;20.27;;
42514;SDS011;28144;49.920;18.730;2022-11-25T12:33:51;34.27;;;19.10;;
42514;SDS011;28144;49.920;18.730;2022-11-25T12:36:39;86.37;;;42.80;;
42514;SDS011;28144;49.920;18.730;2022-11-25T12:41:48;32.10;;;18.07;;
42514;SDS011;28144;49.920;18.730;2022-11-25T12:46:49;31.40;;;18.17;;
42514;SDS011;28144;49.920;18.730;2022-11-25T12:49:24;31.23;;;18.30;;
42514;SDS011;28144;49.920;18.730;2022-11-25T13:05:39;29.20;;;17.53;;
42514;SDS011;28144;49.920;18.730;2022-11-25T13:16:55;30.03;;;16.90;;
42514;SDS011;28144;49.920;18.730;2022-11-25T13:19:21;30.40;;;17.77;;
42514;SDS011;28144;49.920;18.730;2022-11-25T13:24:37;30.35;;;17.27;;
42514;SDS011;28144;49.920;18.730;2022-11-25T13:27:04;28.33;;;17.77;;
42514;SDS011;28144;49.920;18.730;2022-11-25T13:37:51;29.43;;;17.20;;
42514;SDS011;28144;49.920;18.730;2022-11-25T13:42:46;31.87;;;17.40;;
42514;SDS011;28144;49.920;18.730;2022-11-25T13:45:45;32.77;;;15.80;;
42514;SDS011;28144;49.920;18.730;2022-11-25T13:48:20;29.50;;;16.57;;
42514;SDS011;28144;49.920;18.730;2022-11-25T13:53:49;32.57;;;16.30;;
42514;SDS011;28144;49.920;18.730;2022-11-25T14:04:49;30.37;;;16.10;;
42514;SDS011;28144;49.920;18.730;2022-11-25T14:16:07;28.63;;;17.73;;
42514;SDS011;28144;49.920;18.730;2022-11-25T14:18:44;31.57;;;16.83;;
42514;SDS011;28144;49.920;18.730;2022-11-25T14:26:51;40.60;;;19.63;;
42514;SDS011;28144;49.920;18.730;2022-11-25T14:29:21;44.10;;;20.87;;
42514;SDS011;28144;49.920;18.730;2022-11-25T14:31:51;45.23;;;21.87;;
42514;SDS011;28144;49.920;18.730;2022-11-25T14:36:53;42.43;;;21.20;;
42514;SDS011;28144;49.920;18.730;2022-11-25T14:39:23;54.53;;;24.83;;
42514;SDS011;28144;49.920;18.730;2022-11-25T14:44:31;92.50;;;37.13;;
42514;SDS011;28144;49.920;18.730;2022-11-25T14:47:03;75.27;;;32.17;;
42514;SDS011;28144;49.920;18.730;2022-11-25T14:52:07;60.33;;;27.23;;
42514;SDS011;28144;49.920;18.730;2022-11-25T14:54:39;65.33;;;27.37;;
42514;SDS011;28144;49.920;18.730;2022-11-25T14:57:06;51.77;;;25.67;;
42514;SDS011;28144;49.920;18.730;2022-11-25T14:59:32;43.63;;;20.77;;
42514;SDS011;28144;49.920;18.730;2022-11-25T15:01:59;34.58;;;18.95;;
42514;SDS011;28144;49.920;18.730;2022-11-25T15:04:24;34.40;;;18.03;;
42514;SDS011;28144;49.920;18.730;2022-11-25T15:06:51;40.22;;;20.00;;
42514;SDS011;28144;49.920;18.730;2022-11-25T15:09:22;45.43;;;20.33;;
42514;SDS011;28144;49.920;18.730;2022-11-25T15:11:51;40.17;;;18.90;;
42514;SDS011;28144;49.920;18.730;2022-11-25T15:14:38;47.00;;;23.17;;
42514;SDS011;28144;49.920;18.730;2022-11-25T15:17:22;40.00;;;20.83;;
42514;SDS011;28144;49.920;18.730;2022-11-25T15:19:50;41.43;;;19.63;;
42514;SDS011;28144;49.920;18.730;2022-11-25T15:22:17;40.17;;;20.60;;
42514;SDS011;28144;49.920;18.730;2022-11-25T15:24:44;41.60;;;20.27;;
42514;SDS011;28144;49.920;18.730;2022-11-25T15:27:18;36.10;;;20.20;;
42514;SDS011;28144;49.920;18.730;2022-11-25T15:29:47;40.10;;;20.63;;
42514;SDS011;28144;49.920;18.730;2022-11-25T15:32:19;43.30;;;22.80;;
42514;SDS011;28144;49.920;18.730;2022-11-25T15:34:47;36.90;;;20.07;;
42514;SDS011;28144;49.920;18.730;2022-11-25T15:37:14;37.53;;;22.48;;
42514;SDS011;28144;49.920;18.730;2022-11-25T15:39:39;45.63;;;24.33;;
42514;SDS011;28144;49.920;18.730;2022-11-25T15:42:06;48.13;;;24.43;;
42514;SDS011;28144;49.920;18.730;2022-11-25T15:44:52;42.93;;;24.13;;
42514;SDS011;28144;49.920;18.730;2022-11-25T15:47:23;39.47;;;20.97;;
42514;SDS011;28144;49.920;18.730;2022-11-25T15:49:59;42.50;;;20.33;;
42514;SDS011;28144;49.920;18.730;2022-11-25T15:52:28;43.50;;;21.90;;
42514;SDS011;28144;49.920;18.730;2022-11-25T15:55:01;39.00;;;19.67;;
42514;SDS011;28144;49.920;18.730;2022-11-25T15:57:30;35.83;;;19.60;;
42514;SDS011;28144;49.920;18.730;2022-11-25T16:02:34;37.63;;;18.63;;
42514;SDS011;28144;49.920;18.730;2022-11-25T16:05:07;43.03;;;22.75;;
42514;SDS011;28144;49.920;18.730;2022-11-25T16:18:16;51.93;;;24.40;;
42514;SDS011;28144;49.920;18.730;2022-11-25T16:20:49;49.67;;;23.90;;
42514;SDS011;28144;49.920;18.730;2022-11-25T16:23:18;57.57;;;28.33;;
42514;SDS011;28144;49.920;18.730;2022-11-25T16:25:59;62.88;;;29.05;;
42514;SDS011;28144;49.920;18.730;2022-11-25T16:28:30;82.32;;;33.95;;
42514;SDS011;28144;49.920;18.730;2022-11-25T16:30:56;59.57;;;28.37;;
42514;SDS011;28144;49.920;18.730;2022-11-25T16:35:49;53.22;;;25.58;;
42514;SDS011;28144;49.920;18.730;2022-11-25T16:38:16;47.22;;;25.88;;
42514;SDS011;28144;49.920;18.730;2022-11-25T16:40:42;55.57;;;26.57;;
42514;SDS011;28144;49.920;18.730;2022-11-25T16:43:41;56.47;;;27.53;;
42514;SDS011;28144;49.920;18.730;2022-11-25T16:46:01;59.40;;;27.87;;
42514;SDS011;28144;49.920;18.730;2022-11-25T16:48:27;55.87;;;27.60;;
42514;SDS011;28144;49.920;18.730;2022-11-25T16:50:52;54.43;;;28.30;;
42514;SDS011;28144;49.920;18.730;2022-11-25T16:53:18;58.10;;;29.33;;
42514;SDS011;28144;49.920;18.730;2022-11-25T16:55:44;62.20;;;30.80;;
42514;SDS011;28144;49.920;18.730;2022-11-25T16:58:43;58.45;;;30.23;;